sensor_id;sensor_type;location;lat;lon;timestamp;P1;durP1;ratioP1;P2;durP2;ratioP2
23388;SDS011;11867;51.198;11.966;2023-02-15T00:00:13;39.80;;;20.15;;
23388;SDS011;11867;51.198;11.966;2023-02-15T00:01:15;29.65;;;18.50;;
23388;SDS011;11867;51.198;11.966;2023-02-15T00:02:17;32.20;;;20.15;;
23388;SDS011;11867;51.198;11.966;2023-02-15T00:03:21;32.95;;;19.90;;
23388;SDS011;11867;51.198;11.966;2023-02-15T00:04:23;47.70;;;21.23;;
23388;SDS011;11867;51.198;11.966;2023-02-15T00:05:47;28.88;;;19.88;;
23388;SDS011;11867;51.198;11.966;2023-02-15T00:06:48;42.58;;;18.83;;
23388;SDS011;11867;51.198;11.966;2023-02-15T00:07:51;35.45;;;19.50;;
23388;SDS011;11867;51.198;11.966;2023-02-15T00:08:53;28.55;;;18.13;;
23388;SDS011;11867;51.198;11.966;2023-02-15T00:09:56;28.95;;;18.05;;
23388;SDS011;11867;51.198;11.966;2023-02-15T00:11:05;31.20;;;19.50;;
23388;SDS011;11867;51.198;11.966;2023-02-15T00:12:08;27.90;;;17.43;;
23388;SDS011;11867;51.198;11.966;2023-02-15T00:13:12;24.80;;;17.00;;
23388;SDS011;11867;51.198;11.966;2023-02-15T00:14:15;25.17;;;16.38;;
23388;SDS011;11867;51.198;11.966;2023-02-15T00:15:18;25.17;;;16.27;;
23388;SDS011;11867;51.198;11.966;2023-02-15T00:16:21;24.30;;;15.63;;
23388;SDS011;11867;51.198;11.966;2023-02-15T00:17:23;33.50;;;17.02;;
23388;SDS011;11867;51.198;11.966;2023-02-15T00:18:26;37.25;;;17.02;;
23388;SDS011;11867;51.198;11.966;2023-02-15T00:19:28;29.20;;;17.45;;
23388;SDS011;11867;51.198;11.966;2023-02-15T00:20:31;23.08;;;17.02;;
23388;SDS011;11867;51.198;11.966;2023-02-15T00:21:34;35.25;;;15.60;;
23388;SDS011;11867;51.198;11.966;2023-02-15T00:22:37;24.88;;;15.75;;
23388;SDS011;11867;51.198;11.966;2023-02-15T00:23:39;33.30;;;16.23;;
23388;SDS011;11867;51.198;11.966;2023-02-15T00:24:42;27.13;;;16.95;;
23388;SDS011;11867;51.198;11.966;2023-02-15T00:25:43;31.95;;;16.13;;
23388;SDS011;11867;51.198;11.966;2023-02-15T00:26:47;39.00;;;14.77;;
23388;SDS011;11867;51.198;11.966;2023-02-15T00:27:48;27.83;;;15.60;;
23388;SDS011;11867;51.198;11.966;2023-02-15T00:28:53;24.45;;;15.00;;
23388;SDS011;11867;51.198;11.966;2023-02-15T00:29:55;25.15;;;16.02;;
23388;SDS011;11867;51.198;11.966;2023-02-15T00:31:02;27.67;;;16.58;;
23388;SDS011;11867;51.198;11.966;2023-02-15T00:32:05;28.23;;;16.55;;
23388;SDS011;11867;51.198;11.966;2023-02-15T00:33:08;34.40;;;17.13;;
23388;SDS011;11867;51.198;11.966;2023-02-15T00:34:10;27.83;;;17.15;;
23388;SDS011;11867;51.198;11.966;2023-02-15T00:35:14;24.17;;;17.23;;
23388;SDS011;11867;51.198;11.966;2023-02-15T00:36:16;25.75;;;16.98;;
23388;SDS011;11867;51.198;11.966;2023-02-15T00:37:19;25.13;;;17.23;;
23388;SDS011;11867;51.198;11.966;2023-02-15T00:38:21;33.13;;;17.65;;
23388;SDS011;11867;51.198;11.966;2023-02-15T00:39:24;27.38;;;18.65;;
23388;SDS011;11867;51.198;11.966;2023-02-15T00:40:25;27.08;;;17.67;;
23388;SDS011;11867;51.198;11.966;2023-02-15T00:41:28;29.60;;;17.75;;
23388;SDS011;11867;51.198;11.966;2023-02-15T00:42:30;25.75;;;17.75;;
23388;SDS011;11867;51.198;11.966;2023-02-15T00:43:33;28.60;;;17.88;;
23388;SDS011;11867;51.198;11.966;2023-02-15T00:44:37;40.53;;;19.23;;
23388;SDS011;11867;51.198;11.966;2023-02-15T00:45:39;30.48;;;18.90;;
23388;SDS011;11867;51.198;11.966;2023-02-15T00:46:41;28.88;;;17.30;;
23388;SDS011;11867;51.198;11.966;2023-02-15T00:47:44;21.85;;;16.35;;
23388;SDS011;11867;51.198;11.966;2023-02-15T00:48:46;26.98;;;17.15;;
23388;SDS011;11867;51.198;11.966;2023-02-15T00:49:49;22.60;;;15.57;;
23388;SDS011;11867;51.198;11.966;2023-02-15T00:50:51;22.27;;;15.48;;
23388;SDS011;11867;51.198;11.966;2023-02-15T00:51:57;21.25;;;15.82;;
23388;SDS011;11867;51.198;11.966;2023-02-15T00:52:58;21.27;;;15.20;;
23388;SDS011;11867;51.198;11.966;2023-02-15T00:54:04;24.02;;;15.43;;
23388;SDS011;11867;51.198;11.966;2023-02-15T00:55:06;23.75;;;15.00;;
23388;SDS011;11867;51.198;11.966;2023-02-15T00:56:09;22.50;;;15.20;;
23388;SDS011;11867;51.198;11.966;2023-02-15T00:57:11;21.58;;;15.88;;
23388;SDS011;11867;51.198;11.966;2023-02-15T00:58:13;22.90;;;15.18;;
23388;SDS011;11867;51.198;11.966;2023-02-15T00:59:16;22.65;;;15.60;;
23388;SDS011;11867;51.198;11.966;2023-02-15T01:00:21;20.55;;;15.13;;
23388;SDS011;11867;51.198;11.966;2023-02-15T01:01:22;21.30;;;15.30;;
23388;SDS011;11867;51.198;11.966;2023-02-15T01:02:27;22.70;;;15.85;;
23388;SDS011;11867;51.198;11.966;2023-02-15T01:03:29;21.77;;;15.70;;
23388;SDS011;11867;51.198;11.966;2023-02-15T01:04:32;23.90;;;15.70;;
23388;SDS011;11867;51.198;11.966;2023-02-15T01:05:33;22.15;;;15.65;;
23388;SDS011;11867;51.198;11.966;2023-02-15T01:06:36;24.92;;;16.42;;
23388;SDS011;11867;51.198;11.966;2023-02-15T01:07:38;20.67;;;15.23;;
23388;SDS011;11867;51.198;11.966;2023-02-15T01:08:41;23.05;;;15.07;;
23388;SDS011;11867;51.198;11.966;2023-02-15T01:09:42;21.85;;;15.98;;
23388;SDS011;11867;51.198;11.966;2023-02-15T01:10:45;21.90;;;15.30;;
23388;SDS011;11867;51.198;11.966;2023-02-15T01:11:48;25.50;;;16.98;;
23388;SDS011;11867;51.198;11.966;2023-02-15T01:12:51;23.33;;;15.80;;
23388;SDS011;11867;51.198;11.966;2023-02-15T01:13:54;23.33;;;15.75;;
23388;SDS011;11867;51.198;11.966;2023-02-15T01:14:58;26.23;;;15.77;;
23388;SDS011;11867;51.198;11.966;2023-02-15T01:16:01;26.30;;;16.75;;
23388;SDS011;11867;51.198;11.966;2023-02-15T01:17:05;25.48;;;16.73;;
23388;SDS011;11867;51.198;11.966;2023-02-15T01:18:07;23.77;;;16.50;;
23388;SDS011;11867;51.198;11.966;2023-02-15T01:19:10;27.23;;;17.20;;
23388;SDS011;11867;51.198;11.966;2023-02-15T01:20:11;24.30;;;16.33;;
23388;SDS011;11867;51.198;11.966;2023-02-15T01:21:17;25.55;;;17.00;;
23388;SDS011;11867;51.198;11.966;2023-02-15T01:22:21;23.88;;;16.23;;
23388;SDS011;11867;51.198;11.966;2023-02-15T01:23:23;22.35;;;15.57;;
23388;SDS011;11867;51.198;11.966;2023-02-15T01:24:25;23.85;;;15.65;;
23388;SDS011;11867;51.198;11.966;2023-02-15T01:25:28;21.38;;;15.43;;
23388;SDS011;11867;51.198;11.966;2023-02-15T01:26:29;23.70;;;15.98;;
23388;SDS011;11867;51.198;11.966;2023-02-15T01:27:32;20.10;;;14.98;;
23388;SDS011;11867;51.198;11.966;2023-02-15T01:28:33;21.73;;;14.48;;
23388;SDS011;11867;51.198;11.966;2023-02-15T01:29:36;18.67;;;14.20;;
23388;SDS011;11867;51.198;11.966;2023-02-15T01:30:38;17.83;;;13.50;;
23388;SDS011;11867;51.198;11.966;2023-02-15T01:31:42;17.65;;;12.57;;
23388;SDS011;11867;51.198;11.966;2023-02-15T01:32:44;17.25;;;12.85;;
23388;SDS011;11867;51.198;11.966;2023-02-15T01:33:47;17.23;;;13.10;;
23388;SDS011;11867;51.198;11.966;2023-02-15T01:34:50;15.40;;;12.40;;
23388;SDS011;11867;51.198;11.966;2023-02-15T01:35:55;16.65;;;12.07;;
23388;SDS011;11867;51.198;11.966;2023-02-15T01:37:00;17.58;;;12.98;;
23388;SDS011;11867;51.198;11.966;2023-02-15T01:38:02;17.88;;;13.18;;
23388;SDS011;11867;51.198;11.966;2023-02-15T01:39:04;14.88;;;12.13;;
23388;SDS011;11867;51.198;11.966;2023-02-15T01:40:07;16.85;;;12.77;;
23388;SDS011;11867;51.198;11.966;2023-02-15T01:41:13;15.68;;;12.48;;
23388;SDS011;11867;51.198;11.966;2023-02-15T01:42:21;16.58;;;12.63;;
23388;SDS011;11867;51.198;11.966;2023-02-15T01:43:38;16.48;;;12.25;;
23388;SDS011;11867;51.198;11.966;2023-02-15T01:44:46;17.63;;;12.20;;
23388;SDS011;11867;51.198;11.966;2023-02-15T01:45:50;18.48;;;12.23;;
23388;SDS011;11867;51.198;11.966;2023-02-15T01:46:55;16.58;;;12.13;;
23388;SDS011;11867;51.198;11.966;2023-02-15T01:47:58;16.13;;;12.50;;
23388;SDS011;11867;51.198;11.966;2023-02-15T01:49:08;22.02;;;13.38;;
23388;SDS011;11867;51.198;11.966;2023-02-15T01:50:14;16.15;;;12.73;;
23388;SDS011;11867;51.198;11.966;2023-02-15T01:51:20;20.13;;;11.77;;
23388;SDS011;11867;51.198;11.966;2023-02-15T01:52:25;18.73;;;13.48;;
23388;SDS011;11867;51.198;11.966;2023-02-15T01:53:28;19.35;;;12.88;;
23388;SDS011;11867;51.198;11.966;2023-02-15T01:54:37;16.98;;;12.32;;
23388;SDS011;11867;51.198;11.966;2023-02-15T01:55:43;17.60;;;11.85;;
23388;SDS011;11867;51.198;11.966;2023-02-15T01:56:48;16.23;;;11.65;;
23388;SDS011;11867;51.198;11.966;2023-02-15T01:57:51;17.73;;;13.02;;
23388;SDS011;11867;51.198;11.966;2023-02-15T01:58:53;17.40;;;12.10;;
23388;SDS011;11867;51.198;11.966;2023-02-15T01:59:59;16.60;;;11.98;;
23388;SDS011;11867;51.198;11.966;2023-02-15T02:01:04;15.32;;;12.20;;
23388;SDS011;11867;51.198;11.966;2023-02-15T02:02:12;17.10;;;12.52;;
23388;SDS011;11867;51.198;11.966;2023-02-15T02:03:16;16.48;;;12.15;;
23388;SDS011;11867;51.198;11.966;2023-02-15T02:04:20;14.88;;;12.25;;
23388;SDS011;11867;51.198;11.966;2023-02-15T02:05:27;14.55;;;11.70;;
23388;SDS011;11867;51.198;11.966;2023-02-15T02:06:31;15.43;;;12.48;;
23388;SDS011;11867;51.198;11.966;2023-02-15T02:07:35;15.00;;;11.40;;
23388;SDS011;11867;51.198;11.966;2023-02-15T02:08:41;15.48;;;11.75;;
23388;SDS011;11867;51.198;11.966;2023-02-15T02:09:43;15.93;;;12.25;;
23388;SDS011;11867;51.198;11.966;2023-02-15T02:10:47;16.35;;;12.38;;
23388;SDS011;11867;51.198;11.966;2023-02-15T02:11:48;14.25;;;11.10;;
23388;SDS011;11867;51.198;11.966;2023-02-15T02:12:56;15.82;;;11.93;;
23388;SDS011;11867;51.198;11.966;2023-02-15T02:14:00;14.40;;;11.32;;
23388;SDS011;11867;51.198;11.966;2023-02-15T02:15:03;16.67;;;12.13;;
23388;SDS011;11867;51.198;11.966;2023-02-15T02:16:08;15.23;;;12.00;;
23388;SDS011;11867;51.198;11.966;2023-02-15T02:17:18;14.52;;;11.93;;
23388;SDS011;11867;51.198;11.966;2023-02-15T02:18:29;14.23;;;11.30;;
23388;SDS011;11867;51.198;11.966;2023-02-15T02:21:35;13.30;;;11.13;;
23388;SDS011;11867;51.198;11.966;2023-02-15T02:23:08;15.77;;;11.07;;
23388;SDS011;11867;51.198;11.966;2023-02-15T02:24:38;13.07;;;10.57;;
23388;SDS011;11867;51.198;11.966;2023-02-15T02:26:06;12.88;;;10.77;;
23388;SDS011;11867;51.198;11.966;2023-02-15T02:27:40;14.65;;;10.38;;
23388;SDS011;11867;51.198;11.966;2023-02-15T02:28:53;14.70;;;10.77;;
23388;SDS011;11867;51.198;11.966;2023-02-15T02:32:27;13.38;;;10.55;;
23388;SDS011;11867;51.198;11.966;2023-02-15T02:33:57;11.82;;;10.30;;
23388;SDS011;11867;51.198;11.966;2023-02-15T02:35:08;14.60;;;10.55;;
23388;SDS011;11867;51.198;11.966;2023-02-15T02:36:15;16.67;;;10.98;;
23388;SDS011;11867;51.198;11.966;2023-02-15T02:37:28;13.30;;;10.15;;
23388;SDS011;11867;51.198;11.966;2023-02-15T02:38:42;13.05;;;10.13;;
23388;SDS011;11867;51.198;11.966;2023-02-15T02:39:54;15.82;;;10.50;;
23388;SDS011;11867;51.198;11.966;2023-02-15T02:41:07;23.88;;;10.48;;
23388;SDS011;11867;51.198;11.966;2023-02-15T02:42:20;20.88;;;10.13;;
23388;SDS011;11867;51.198;11.966;2023-02-15T02:43:31;15.75;;;10.45;;
23388;SDS011;11867;51.198;11.966;2023-02-15T02:44:41;16.55;;;9.88;;
23388;SDS011;11867;51.198;11.966;2023-02-15T02:45:46;13.15;;;10.80;;
23388;SDS011;11867;51.198;11.966;2023-02-15T02:46:58;10.85;;;7.30;;
23388;SDS011;11867;51.198;11.966;2023-02-15T02:48:03;12.63;;;9.88;;
23388;SDS011;11867;51.198;11.966;2023-02-15T02:49:10;10.68;;;9.57;;
23388;SDS011;11867;51.198;11.966;2023-02-15T02:50:14;11.35;;;9.85;;
23388;SDS011;11867;51.198;11.966;2023-02-15T02:51:17;13.40;;;10.13;;
23388;SDS011;11867;51.198;11.966;2023-02-15T02:52:38;11.90;;;9.77;;
23388;SDS011;11867;51.198;11.966;2023-02-15T02:53:40;10.38;;;9.32;;
23388;SDS011;11867;51.198;11.966;2023-02-15T02:54:43;11.77;;;10.05;;
23388;SDS011;11867;51.198;11.966;2023-02-15T02:55:46;11.48;;;9.80;;
23388;SDS011;11867;51.198;11.966;2023-02-15T02:56:52;13.48;;;9.95;;
23388;SDS011;11867;51.198;11.966;2023-02-15T02:58:00;12.48;;;9.82;;
23388;SDS011;11867;51.198;11.966;2023-02-15T02:59:09;7.75;;;6.85;;
23388;SDS011;11867;51.198;11.966;2023-02-15T03:00:16;11.77;;;9.27;;
23388;SDS011;11867;51.198;11.966;2023-02-15T03:01:22;11.63;;;9.00;;
23388;SDS011;11867;51.198;11.966;2023-02-15T03:02:29;12.15;;;9.38;;
23388;SDS011;11867;51.198;11.966;2023-02-15T03:03:36;10.43;;;9.23;;
23388;SDS011;11867;51.198;11.966;2023-02-15T03:04:43;12.65;;;9.65;;
23388;SDS011;11867;51.198;11.966;2023-02-15T03:05:50;12.00;;;9.57;;
23388;SDS011;11867;51.198;11.966;2023-02-15T03:06:57;13.93;;;8.10;;
23388;SDS011;11867;51.198;11.966;2023-02-15T03:08:05;11.77;;;9.43;;
23388;SDS011;11867;51.198;11.966;2023-02-15T03:09:11;12.90;;;8.98;;
23388;SDS011;11867;51.198;11.966;2023-02-15T03:10:22;15.85;;;9.55;;
23388;SDS011;11867;51.198;11.966;2023-02-15T03:11:26;11.55;;;9.43;;
23388;SDS011;11867;51.198;11.966;2023-02-15T03:12:30;11.52;;;9.57;;
23388;SDS011;11867;51.198;11.966;2023-02-15T03:13:33;13.20;;;10.07;;
23388;SDS011;11867;51.198;11.966;2023-02-15T03:14:37;11.85;;;9.70;;
23388;SDS011;11867;51.198;11.966;2023-02-15T03:15:41;11.10;;;9.23;;
23388;SDS011;11867;51.198;11.966;2023-02-15T03:17:04;11.95;;;10.02;;
23388;SDS011;11867;51.198;11.966;2023-02-15T03:18:09;12.55;;;9.70;;
23388;SDS011;11867;51.198;11.966;2023-02-15T03:19:11;13.23;;;10.00;;
23388;SDS011;11867;51.198;11.966;2023-02-15T03:20:20;12.00;;;10.10;;
23388;SDS011;11867;51.198;11.966;2023-02-15T03:21:29;10.75;;;8.80;;
23388;SDS011;11867;51.198;11.966;2023-02-15T03:22:36;11.32;;;9.48;;
23388;SDS011;11867;51.198;11.966;2023-02-15T03:23:41;10.38;;;9.07;;
23388;SDS011;11867;51.198;11.966;2023-02-15T03:24:46;10.23;;;8.85;;
23388;SDS011;11867;51.198;11.966;2023-02-15T03:25:56;10.57;;;9.18;;
23388;SDS011;11867;51.198;11.966;2023-02-15T03:27:00;11.43;;;9.45;;
23388;SDS011;11867;51.198;11.966;2023-02-15T03:28:06;10.57;;;9.23;;
23388;SDS011;11867;51.198;11.966;2023-02-15T03:29:11;14.75;;;9.20;;
23388;SDS011;11867;51.198;11.966;2023-02-15T03:30:18;12.23;;;9.98;;
23388;SDS011;11867;51.198;11.966;2023-02-15T03:31:22;10.20;;;9.10;;
23388;SDS011;11867;51.198;11.966;2023-02-15T03:32:30;10.32;;;8.38;;
23388;SDS011;11867;51.198;11.966;2023-02-15T03:33:34;9.85;;;8.57;;
23388;SDS011;11867;51.198;11.966;2023-02-15T03:34:43;11.90;;;9.63;;
23388;SDS011;11867;51.198;11.966;2023-02-15T03:35:48;11.07;;;8.00;;
23388;SDS011;11867;51.198;11.966;2023-02-15T03:36:56;10.18;;;8.68;;
23388;SDS011;11867;51.198;11.966;2023-02-15T03:38:08;13.07;;;10.10;;
23388;SDS011;11867;51.198;11.966;2023-02-15T03:39:15;15.32;;;10.88;;
23388;SDS011;11867;51.198;11.966;2023-02-15T03:40:21;14.75;;;10.77;;
23388;SDS011;11867;51.198;11.966;2023-02-15T03:41:46;14.57;;;10.82;;
23388;SDS011;11867;51.198;11.966;2023-02-15T03:42:58;9.93;;;7.82;;
23388;SDS011;11867;51.198;11.966;2023-02-15T03:44:04;14.82;;;10.18;;
23388;SDS011;11867;51.198;11.966;2023-02-15T03:45:14;11.00;;;8.85;;
23388;SDS011;11867;51.198;11.966;2023-02-15T03:46:21;16.27;;;10.73;;
23388;SDS011;11867;51.198;11.966;2023-02-15T03:47:30;14.82;;;11.30;;
23388;SDS011;11867;51.198;11.966;2023-02-15T03:48:35;26.85;;;11.10;;
23388;SDS011;11867;51.198;11.966;2023-02-15T03:49:47;14.65;;;11.20;;
23388;SDS011;11867;51.198;11.966;2023-02-15T03:50:57;17.60;;;10.60;;
23388;SDS011;11867;51.198;11.966;2023-02-15T03:52:20;25.67;;;11.02;;
23388;SDS011;11867;51.198;11.966;2023-02-15T03:53:24;22.45;;;11.52;;
23388;SDS011;11867;51.198;11.966;2023-02-15T03:54:31;26.02;;;11.55;;
23388;SDS011;11867;51.198;11.966;2023-02-15T03:55:45;17.42;;;10.85;;
23388;SDS011;11867;51.198;11.966;2023-02-15T03:56:48;26.20;;;11.70;;
23388;SDS011;11867;51.198;11.966;2023-02-15T03:58:11;30.80;;;11.38;;
23388;SDS011;11867;51.198;11.966;2023-02-15T03:59:31;18.20;;;8.02;;
23388;SDS011;11867;51.198;11.966;2023-02-15T04:00:57;22.15;;;10.82;;
23388;SDS011;11867;51.198;11.966;2023-02-15T04:02:20;19.15;;;11.25;;
23388;SDS011;11867;51.198;11.966;2023-02-15T04:03:28;22.83;;;11.68;;
23388;SDS011;11867;51.198;11.966;2023-02-15T04:04:35;23.30;;;10.73;;
23388;SDS011;11867;51.198;11.966;2023-02-15T04:05:40;20.95;;;10.65;;
23388;SDS011;11867;51.198;11.966;2023-02-15T04:06:44;21.60;;;11.70;;
23388;SDS011;11867;51.198;11.966;2023-02-15T04:07:47;15.65;;;11.00;;
23388;SDS011;11867;51.198;11.966;2023-02-15T04:08:48;14.27;;;10.77;;
23388;SDS011;11867;51.198;11.966;2023-02-15T04:10:09;10.32;;;8.07;;
23388;SDS011;11867;51.198;11.966;2023-02-15T04:11:29;16.42;;;10.80;;
23388;SDS011;11867;51.198;11.966;2023-02-15T04:12:34;13.30;;;10.63;;
23388;SDS011;11867;51.198;11.966;2023-02-15T04:13:36;11.38;;;9.38;;
23388;SDS011;11867;51.198;11.966;2023-02-15T04:14:39;15.27;;;11.63;;
23388;SDS011;11867;51.198;11.966;2023-02-15T04:15:59;9.85;;;8.05;;
23388;SDS011;11867;51.198;11.966;2023-02-15T04:17:05;13.18;;;10.25;;
23388;SDS011;11867;51.198;11.966;2023-02-15T04:18:07;13.93;;;10.40;;
23388;SDS011;11867;51.198;11.966;2023-02-15T04:19:12;14.75;;;10.45;;
23388;SDS011;11867;51.198;11.966;2023-02-15T04:20:32;9.23;;;7.45;;
23388;SDS011;11867;51.198;11.966;2023-02-15T04:23:15;11.35;;;9.05;;
23388;SDS011;11867;51.198;11.966;2023-02-15T04:24:35;8.20;;;6.72;;
23388;SDS011;11867;51.198;11.966;2023-02-15T04:25:55;10.65;;;8.30;;
23388;SDS011;11867;51.198;11.966;2023-02-15T04:26:58;10.85;;;8.85;;
23388;SDS011;11867;51.198;11.966;2023-02-15T04:28:01;10.88;;;9.05;;
23388;SDS011;11867;51.198;11.966;2023-02-15T04:29:03;12.48;;;10.15;;
23388;SDS011;11867;51.198;11.966;2023-02-15T04:30:05;12.00;;;9.57;;
23388;SDS011;11867;51.198;11.966;2023-02-15T04:31:09;11.50;;;9.30;;
23388;SDS011;11867;51.198;11.966;2023-02-15T04:32:11;11.07;;;9.30;;
23388;SDS011;11867;51.198;11.966;2023-02-15T04:33:14;11.80;;;9.02;;
23388;SDS011;11867;51.198;11.966;2023-02-15T04:34:16;10.93;;;9.13;;
23388;SDS011;11867;51.198;11.966;2023-02-15T04:35:19;13.70;;;9.88;;
23388;SDS011;11867;51.198;11.966;2023-02-15T04:36:20;11.38;;;8.98;;
23388;SDS011;11867;51.198;11.966;2023-02-15T04:37:24;11.00;;;9.25;;
23388;SDS011;11867;51.198;11.966;2023-02-15T04:38:27;11.05;;;8.40;;
23388;SDS011;11867;51.198;11.966;2023-02-15T04:39:29;10.20;;;9.05;;
23388;SDS011;11867;51.198;11.966;2023-02-15T04:40:33;10.98;;;8.77;;
23388;SDS011;11867;51.198;11.966;2023-02-15T04:41:35;12.63;;;9.52;;
23388;SDS011;11867;51.198;11.966;2023-02-15T04:42:38;9.35;;;8.40;;
23388;SDS011;11867;51.198;11.966;2023-02-15T04:43:40;10.57;;;8.73;;
23388;SDS011;11867;51.198;11.966;2023-02-15T04:44:42;11.20;;;8.30;;
23388;SDS011;11867;51.198;11.966;2023-02-15T04:45:47;9.88;;;8.88;;
23388;SDS011;11867;51.198;11.966;2023-02-15T04:46:51;9.77;;;8.27;;
23388;SDS011;11867;51.198;11.966;2023-02-15T04:47:53;9.93;;;8.40;;
23388;SDS011;11867;51.198;11.966;2023-02-15T04:48:58;8.82;;;7.65;;
23388;SDS011;11867;51.198;11.966;2023-02-15T04:50:00;10.18;;;7.88;;
23388;SDS011;11867;51.198;11.966;2023-02-15T04:51:04;8.60;;;7.40;;
23388;SDS011;11867;51.198;11.966;2023-02-15T04:52:06;10.50;;;7.90;;
23388;SDS011;11867;51.198;11.966;2023-02-15T04:53:10;9.52;;;8.05;;
23388;SDS011;11867;51.198;11.966;2023-02-15T04:54:12;10.20;;;8.35;;
23388;SDS011;11867;51.198;11.966;2023-02-15T04:55:15;10.05;;;8.30;;
23388;SDS011;11867;51.198;11.966;2023-02-15T04:56:17;10.88;;;8.55;;
23388;SDS011;11867;51.198;11.966;2023-02-15T04:57:19;9.10;;;7.78;;
23388;SDS011;11867;51.198;11.966;2023-02-15T04:58:21;11.18;;;8.60;;
23388;SDS011;11867;51.198;11.966;2023-02-15T04:59:24;9.30;;;7.95;;
23388;SDS011;11867;51.198;11.966;2023-02-15T05:00:26;8.50;;;7.60;;
23388;SDS011;11867;51.198;11.966;2023-02-15T05:01:31;8.77;;;7.35;;
23388;SDS011;11867;51.198;11.966;2023-02-15T05:02:33;8.45;;;7.30;;
23388;SDS011;11867;51.198;11.966;2023-02-15T05:03:36;9.10;;;8.15;;
23388;SDS011;11867;51.198;11.966;2023-02-15T05:04:38;8.80;;;7.90;;
23388;SDS011;11867;51.198;11.966;2023-02-15T05:05:41;8.35;;;7.43;;
23388;SDS011;11867;51.198;11.966;2023-02-15T05:06:43;10.23;;;7.95;;
23388;SDS011;11867;51.198;11.966;2023-02-15T05:07:48;9.73;;;7.70;;
23388;SDS011;11867;51.198;11.966;2023-02-15T05:08:51;10.52;;;8.27;;
23388;SDS011;11867;51.198;11.966;2023-02-15T05:09:54;10.05;;;7.18;;
23388;SDS011;11867;51.198;11.966;2023-02-15T05:10:56;8.80;;;7.90;;
23388;SDS011;11867;51.198;11.966;2023-02-15T05:11:58;10.95;;;8.32;;
23388;SDS011;11867;51.198;11.966;2023-02-15T05:13:00;9.02;;;7.20;;
23388;SDS011;11867;51.198;11.966;2023-02-15T05:14:03;9.93;;;8.50;;
23388;SDS011;11867;51.198;11.966;2023-02-15T05:15:05;8.93;;;7.95;;
23388;SDS011;11867;51.198;11.966;2023-02-15T05:16:10;8.73;;;7.45;;
23388;SDS011;11867;51.198;11.966;2023-02-15T05:17:12;9.20;;;7.82;;
23388;SDS011;11867;51.198;11.966;2023-02-15T05:18:16;10.40;;;8.15;;
23388;SDS011;11867;51.198;11.966;2023-02-15T05:19:18;8.88;;;7.32;;
23388;SDS011;11867;51.198;11.966;2023-02-15T05:20:21;9.55;;;7.93;;
23388;SDS011;11867;51.198;11.966;2023-02-15T05:21:23;9.00;;;7.57;;
23388;SDS011;11867;51.198;11.966;2023-02-15T05:22:25;10.63;;;8.30;;
23388;SDS011;11867;51.198;11.966;2023-02-15T05:23:29;9.23;;;8.27;;
23388;SDS011;11867;51.198;11.966;2023-02-15T05:24:34;10.38;;;8.25;;
23388;SDS011;11867;51.198;11.966;2023-02-15T05:25:54;10.27;;;8.40;;
23388;SDS011;11867;51.198;11.966;2023-02-15T05:27:11;12.00;;;9.00;;
23388;SDS011;11867;51.198;11.966;2023-02-15T05:28:31;10.15;;;7.65;;
23388;SDS011;11867;51.198;11.966;2023-02-15T05:29:35;12.43;;;9.57;;
23388;SDS011;11867;51.198;11.966;2023-02-15T05:30:37;12.93;;;10.05;;
23388;SDS011;11867;51.198;11.966;2023-02-15T05:31:41;11.57;;;9.45;;
23388;SDS011;11867;51.198;11.966;2023-02-15T05:32:43;12.90;;;9.60;;
23388;SDS011;11867;51.198;11.966;2023-02-15T05:33:46;11.43;;;9.40;;
23388;SDS011;11867;51.198;11.966;2023-02-15T05:34:47;12.48;;;9.52;;
23388;SDS011;11867;51.198;11.966;2023-02-15T05:35:50;11.40;;;9.75;;
23388;SDS011;11867;51.198;11.966;2023-02-15T05:36:52;11.52;;;9.55;;
23388;SDS011;11867;51.198;11.966;2023-02-15T05:37:55;13.23;;;10.45;;
23388;SDS011;11867;51.198;11.966;2023-02-15T05:38:57;12.07;;;10.30;;
23388;SDS011;11867;51.198;11.966;2023-02-15T05:40:01;20.73;;;10.18;;
23388;SDS011;11867;51.198;11.966;2023-02-15T05:41:03;14.70;;;10.60;;
23388;SDS011;11867;51.198;11.966;2023-02-15T05:42:06;11.95;;;9.60;;
23388;SDS011;11867;51.198;11.966;2023-02-15T05:43:08;12.95;;;10.55;;
23388;SDS011;11867;51.198;11.966;2023-02-15T05:44:13;12.13;;;9.90;;
23388;SDS011;11867;51.198;11.966;2023-02-15T05:45:15;13.07;;;10.25;;
23388;SDS011;11867;51.198;11.966;2023-02-15T05:46:17;13.20;;;9.82;;
23388;SDS011;11867;51.198;11.966;2023-02-15T05:47:19;13.32;;;9.63;;
23388;SDS011;11867;51.198;11.966;2023-02-15T05:48:22;13.98;;;10.88;;
23388;SDS011;11867;51.198;11.966;2023-02-15T05:49:25;12.48;;;10.73;;
23388;SDS011;11867;51.198;11.966;2023-02-15T05:50:28;14.95;;;11.10;;
23388;SDS011;11867;51.198;11.966;2023-02-15T05:51:29;13.40;;;9.68;;
23388;SDS011;11867;51.198;11.966;2023-02-15T05:52:32;14.05;;;10.18;;
23388;SDS011;11867;51.198;11.966;2023-02-15T05:53:34;15.98;;;12.20;;
23388;SDS011;11867;51.198;11.966;2023-02-15T05:54:39;13.38;;;11.15;;
23388;SDS011;11867;51.198;11.966;2023-02-15T05:55:42;13.43;;;10.35;;
23388;SDS011;11867;51.198;11.966;2023-02-15T05:56:44;15.23;;;11.65;;
23388;SDS011;11867;51.198;11.966;2023-02-15T05:57:46;14.60;;;10.90;;
23388;SDS011;11867;51.198;11.966;2023-02-15T05:58:49;16.35;;;11.57;;
23388;SDS011;11867;51.198;11.966;2023-02-15T05:59:50;14.13;;;11.15;;
23388;SDS011;11867;51.198;11.966;2023-02-15T06:00:53;12.30;;;10.55;;
23388;SDS011;11867;51.198;11.966;2023-02-15T06:01:55;14.05;;;11.25;;
23388;SDS011;11867;51.198;11.966;2023-02-15T06:02:57;12.68;;;10.48;;
23388;SDS011;11867;51.198;11.966;2023-02-15T06:03:59;14.93;;;11.55;;
23388;SDS011;11867;51.198;11.966;2023-02-15T06:05:02;15.82;;;10.73;;
23388;SDS011;11867;51.198;11.966;2023-02-15T06:06:05;15.57;;;11.73;;
23388;SDS011;11867;51.198;11.966;2023-02-15T06:07:08;13.68;;;10.45;;
23388;SDS011;11867;51.198;11.966;2023-02-15T06:08:10;16.38;;;10.90;;
23388;SDS011;11867;51.198;11.966;2023-02-15T06:09:13;18.60;;;12.52;;
23388;SDS011;11867;51.198;11.966;2023-02-15T06:10:15;15.93;;;11.52;;
23388;SDS011;11867;51.198;11.966;2023-02-15T06:11:19;28.20;;;12.02;;
23388;SDS011;11867;51.198;11.966;2023-02-15T06:12:21;15.60;;;11.88;;
23388;SDS011;11867;51.198;11.966;2023-02-15T06:13:23;16.63;;;12.27;;
23388;SDS011;11867;51.198;11.966;2023-02-15T06:14:25;18.42;;;13.15;;
23388;SDS011;11867;51.198;11.966;2023-02-15T06:15:28;17.80;;;11.73;;
23388;SDS011;11867;51.198;11.966;2023-02-15T06:16:30;18.20;;;12.23;;
23388;SDS011;11867;51.198;11.966;2023-02-15T06:17:32;29.15;;;12.90;;
23388;SDS011;11867;51.198;11.966;2023-02-15T06:18:34;19.98;;;12.15;;
23388;SDS011;11867;51.198;11.966;2023-02-15T06:19:36;15.60;;;11.82;;
23388;SDS011;11867;51.198;11.966;2023-02-15T06:20:38;18.25;;;11.98;;
23388;SDS011;11867;51.198;11.966;2023-02-15T06:21:41;15.57;;;12.43;;
23388;SDS011;11867;51.198;11.966;2023-02-15T06:22:44;29.50;;;12.50;;
23388;SDS011;11867;51.198;11.966;2023-02-15T06:23:45;22.77;;;12.57;;
23388;SDS011;11867;51.198;11.966;2023-02-15T06:24:51;20.05;;;11.80;;